FDX1458 KMEM-KMCO
Flight info
| Callsign | FDX1458 |
|---|---|
| Flight time | 1h 33m |
| Altitude | 35000 |
| Route | BBKNG7 KERMI VLKNN DEEDA GRNCH5 |
| Aircraft | B77L/H-SDE1E2E3FGHIJ2J3J4J5M1RWXY/LB1D1 |
Departure
| Time | 2026-04-21 16:24 |
|---|---|
| Airport | Memphis International Airport (KMEM) |
Arrival
| Time | 2026-04-21 17:57 |
|---|---|
| Airport | Orlando International Airport (KMCO) |
| Time | Latitude | Longitude | Altitude | Speed | Heading |
|---|---|---|---|---|---|
| 2026-04-21 15:50 | 35.06300 | -89.98158 | 332 ft | 0 kts | 182° |
| 2026-04-21 16:10 | 35.06302 | -89.98158 | 335 ft | 2 kts | 183° |
| 2026-04-21 16:10 | 35.06308 | -89.98158 | 330 ft | 0 kts | 198° |
| 2026-04-21 16:11 | 35.06309 | -89.98158 | 330 ft | 2 kts | 199° |
| 2026-04-21 16:11 | 35.06329 | -89.98135 | 330 ft | 6 kts | 266° |
| 2026-04-21 16:11 | 35.06329 | -89.98146 | 330 ft | 1 kts | 267° |
| 2026-04-21 16:13 | 35.06328 | -89.98166 | 330 ft | 8 kts | 267° |
| 2026-04-21 16:13 | 35.06351 | -89.98269 | 331 ft | 19 kts | 287° |
| 2026-04-21 16:14 | 35.06363 | -89.98354 | 335 ft | 3 kts | 275° |
| 2026-04-21 16:14 | 35.06365 | -89.98388 | 335 ft | 7 kts | 273° |
| 2026-04-21 16:14 | 35.06363 | -89.98475 | 335 ft | 14 kts | 255° |
| 2026-04-21 16:14 | 35.06276 | -89.98525 | 332 ft | 16 kts | 182° |
| 2026-04-21 16:15 | 35.06169 | -89.98530 | 333 ft | 14 kts | 182° |
| 2026-04-21 16:15 | 35.06068 | -89.98526 | 332 ft | 17 kts | 173° |
| 2026-04-21 16:15 | 35.05950 | -89.98512 | 332 ft | 19 kts | 175° |
| 2026-04-21 16:15 | 35.05799 | -89.98506 | 331 ft | 19 kts | 180° |
| 2026-04-21 16:16 | 35.05669 | -89.98507 | 332 ft | 19 kts | 180° |
| 2026-04-21 16:16 | 35.05539 | -89.98509 | 332 ft | 19 kts | 181° |
| 2026-04-21 16:16 | 35.05411 | -89.98510 | 332 ft | 19 kts | 180° |
| 2026-04-21 16:16 | 35.05280 | -89.98511 | 332 ft | 19 kts | 180° |
| 2026-04-21 16:17 | 35.05152 | -89.98516 | 332 ft | 18 kts | 188° |
| 2026-04-21 16:17 | 35.05035 | -89.98566 | 331 ft | 18 kts | 206° |
| 2026-04-21 16:17 | 35.04962 | -89.98613 | 333 ft | 0 kts | 217° |
| 2026-04-21 16:21 | 35.04952 | -89.98626 | 331 ft | 4 kts | 229° |
| 2026-04-21 16:21 | 35.04940 | -89.98664 | 333 ft | 6 kts | 258° |
| 2026-04-21 16:21 | 35.04927 | -89.98719 | 334 ft | 8 kts | 239° |
| 2026-04-21 16:22 | 35.04874 | -89.98740 | 335 ft | 0 kts | 180° |
| 2026-04-21 16:22 | 35.04871 | -89.98740 | 333 ft | 0 kts | 180° |
| 2026-04-21 16:22 | 35.04869 | -89.98740 | 333 ft | 0 kts | 180° |
| 2026-04-21 16:22 | 35.04868 | -89.98740 | 333 ft | 0 kts | 180° |
| 2026-04-21 16:23 | 35.04830 | -89.98740 | 335 ft | 26 kts | 180° |
| 2026-04-21 16:23 | 35.04366 | -89.98730 | 330 ft | 104 kts | 179° |
| 2026-04-21 16:23 | 35.03423 | -89.98711 | 350 ft | 163 kts | 179° |
| 2026-04-21 16:23 | 35.02251 | -89.98677 | 929 ft | 167 kts | 179° |
| 2026-04-21 16:24 | 35.01105 | -89.98627 | 1793 ft | 163 kts | 180° |
| 2026-04-21 16:24 | 34.99960 | -89.98582 | 2534 ft | 170 kts | 180° |
| 2026-04-21 16:24 | 34.98687 | -89.98471 | 2829 ft | 198 kts | 170° |
| 2026-04-21 16:24 | 34.97354 | -89.97685 | 3070 ft | 229 kts | 151° |
| 2026-04-21 16:25 | 34.95902 | -89.96636 | 3563 ft | 251 kts | 154° |
| 2026-04-21 16:25 | 34.94368 | -89.95576 | 4392 ft | 256 kts | 150° |
| 2026-04-21 16:25 | 34.93161 | -89.93969 | 5078 ft | 273 kts | 117° |
| 2026-04-21 16:25 | 34.92852 | -89.91652 | 5945 ft | 282 kts | 91° |
| 2026-04-21 16:26 | 34.92868 | -89.89238 | 6627 ft | 290 kts | 95° |
| 2026-04-21 16:26 | 34.92738 | -89.86760 | 7471 ft | 292 kts | 96° |
| 2026-04-21 16:26 | 34.92598 | -89.84292 | 8463 ft | 292 kts | 96° |
| 2026-04-21 16:26 | 34.92464 | -89.81820 | 9361 ft | 294 kts | 95° |
| 2026-04-21 16:27 | 34.92341 | -89.79316 | 10215 ft | 298 kts | 95° |
| 2026-04-21 16:27 | 34.92214 | -89.76730 | 10670 ft | 318 kts | 95° |
| 2026-04-21 16:27 | 34.92076 | -89.73916 | 10890 ft | 346 kts | 95° |
| 2026-04-21 16:27 | 34.91931 | -89.70913 | 11127 ft | 372 kts | 94° |
| 2026-04-21 16:28 | 34.91775 | -89.67716 | 11771 ft | 384 kts | 95° |
| 2026-04-21 16:28 | 34.91617 | -89.64430 | 12640 ft | 392 kts | 94° |
| 2026-04-21 16:28 | 34.91528 | -89.61089 | 13661 ft | 397 kts | 91° |
| 2026-04-21 16:28 | 34.91531 | -89.57710 | 14596 ft | 402 kts | 90° |
| 2026-04-21 16:29 | 34.91548 | -89.55440 | 15151 ft | 406 kts | 90° |
| 2026-04-21 16:29 | 34.91577 | -89.50794 | 16310 ft | 413 kts | 91° |
| 2026-04-21 16:29 | 34.91588 | -89.47271 | 17188 ft | 418 kts | 91° |
| 2026-04-21 16:29 | 34.91588 | -89.43709 | 18039 ft | 423 kts | 91° |
| 2026-04-21 16:30 | 34.91583 | -89.40096 | 18833 ft | 428 kts | 91° |
| 2026-04-21 16:30 | 34.91573 | -89.36484 | 19527 ft | 434 kts | 91° |
| 2026-04-21 16:30 | 34.91563 | -89.32777 | 20196 ft | 440 kts | 91° |
| 2026-04-21 16:30 | 34.91551 | -89.29024 | 20871 ft | 446 kts | 91° |
| 2026-04-21 16:31 | 34.91538 | -89.25212 | 21547 ft | 452 kts | 91° |
| 2026-04-21 16:31 | 34.91510 | -89.21355 | 22205 ft | 456 kts | 92° |
| 2026-04-21 16:31 | 34.91121 | -89.17507 | 22695 ft | 463 kts | 103° |
| 2026-04-21 16:31 | 34.90352 | -89.13680 | 23292 ft | 468 kts | 105° |
| 2026-04-21 16:32 | 34.89837 | -89.11118 | 23710 ft | 472 kts | 104° |
| 2026-04-21 16:32 | 34.89091 | -89.07205 | 24306 ft | 477 kts | 103° |
| 2026-04-21 16:32 | 34.88375 | -89.03236 | 24861 ft | 481 kts | 103° |
| 2026-04-21 16:32 | 34.87677 | -88.99228 | 25385 ft | 487 kts | 102° |
| 2026-04-21 16:33 | 34.86983 | -88.95165 | 25883 ft | 493 kts | 102° |
| 2026-04-21 16:33 | 34.86282 | -88.91043 | 26392 ft | 499 kts | 102° |
| 2026-04-21 16:33 | 34.85575 | -88.86889 | 26882 ft | 504 kts | 102° |
| 2026-04-21 16:33 | 34.84857 | -88.82688 | 27384 ft | 510 kts | 102° |
| 2026-04-21 16:34 | 34.84128 | -88.78437 | 27839 ft | 516 kts | 102° |
| 2026-04-21 16:34 | 34.83387 | -88.74141 | 28307 ft | 521 kts | 101° |
| 2026-04-21 16:34 | 34.82637 | -88.69803 | 28795 ft | 526 kts | 101° |
| 2026-04-21 16:34 | 34.81878 | -88.65430 | 29266 ft | 530 kts | 101° |
| 2026-04-21 16:35 | 34.81121 | -88.61072 | 29704 ft | 535 kts | 101° |
| 2026-04-21 16:35 | 34.80345 | -88.56623 | 30116 ft | 539 kts | 101° |
| 2026-04-21 16:35 | 34.79563 | -88.52140 | 30578 ft | 541 kts | 101° |
| 2026-04-21 16:35 | 34.78778 | -88.47656 | 31094 ft | 541 kts | 101° |
| 2026-04-21 16:36 | 34.77992 | -88.43175 | 31657 ft | 540 kts | 101° |
| 2026-04-21 16:36 | 34.77208 | -88.38719 | 32174 ft | 540 kts | 101° |
| 2026-04-21 16:36 | 34.76419 | -88.34233 | 32617 ft | 541 kts | 101° |
| 2026-04-21 16:36 | 34.75627 | -88.29748 | 33041 ft | 543 kts | 101° |
| 2026-04-21 16:37 | 34.74832 | -88.25253 | 33474 ft | 544 kts | 101° |
| 2026-04-21 16:37 | 34.74044 | -88.20811 | 33924 ft | 543 kts | 102° |
| 2026-04-21 16:37 | 34.72980 | -88.16413 | 34123 ft | 544 kts | 115° |
| 2026-04-21 16:37 | 34.70969 | -88.12539 | 34420 ft | 536 kts | 137° |
| 2026-04-21 16:38 | 34.68254 | -88.09583 | 35090 ft | 515 kts | 146° |
| 2026-04-21 16:38 | 34.65522 | -88.06743 | 35354 ft | 521 kts | 141° |
| 2026-04-21 16:38 | 34.62874 | -88.03659 | 35391 ft | 531 kts | 139° |
| 2026-04-21 16:38 | 34.60276 | -88.00446 | 35641 ft | 535 kts | 137° |
| 2026-04-21 16:39 | 34.57686 | -87.97197 | 36054 ft | 533 kts | 137° |
| 2026-04-21 16:39 | 34.55145 | -87.94033 | 36563 ft | 529 kts | 138° |
| 2026-04-21 16:39 | 34.52565 | -87.90868 | 37085 ft | 525 kts | 139° |
| 2026-04-21 16:39 | 34.49976 | -87.87736 | 37387 ft | 526 kts | 139° |
| 2026-04-21 16:40 | 34.47364 | -87.84608 | 37320 ft | 530 kts | 139° |
| 2026-04-21 16:40 | 34.42122 | -87.78372 | 37340 ft | 524 kts | 139° |
| 2026-04-21 16:41 | 34.36946 | -87.72219 | 37346 ft | 520 kts | 139° |
| 2026-04-21 16:41 | 34.31775 | -87.66079 | 37339 ft | 520 kts | 139° |
| 2026-04-21 16:42 | 34.26600 | -87.59941 | 37353 ft | 522 kts | 139° |
| 2026-04-21 16:42 | 34.21435 | -87.53820 | 37353 ft | 524 kts | 139° |
| 2026-04-21 16:43 | 34.16218 | -87.47650 | 37358 ft | 525 kts | 139° |
| 2026-04-21 16:43 | 34.10988 | -87.41480 | 37369 ft | 526 kts | 139° |
| 2026-04-21 16:44 | 34.05743 | -87.35301 | 37373 ft | 526 kts | 139° |
| 2026-04-21 16:44 | 34.00521 | -87.29160 | 37384 ft | 527 kts | 139° |
| 2026-04-21 16:45 | 33.95266 | -87.22993 | 37390 ft | 528 kts | 139° |
| 2026-04-21 16:45 | 33.90005 | -87.16830 | 37345 ft | 527 kts | 139° |
| 2026-04-21 16:46 | 33.84738 | -87.10668 | 37352 ft | 527 kts | 139° |
| 2026-04-21 16:46 | 33.79479 | -87.04528 | 37355 ft | 527 kts | 139° |
| 2026-04-21 16:47 | 33.74221 | -86.98400 | 37371 ft | 526 kts | 139° |
| 2026-04-21 16:47 | 33.68995 | -86.92320 | 37385 ft | 526 kts | 139° |
| 2026-04-21 16:48 | 33.63510 | -86.86549 | 37361 ft | 522 kts | 147° |
| 2026-04-21 16:48 | 33.57705 | -86.81289 | 37385 ft | 522 kts | 147° |
| 2026-04-21 16:49 | 33.51908 | -86.76016 | 37389 ft | 523 kts | 147° |
| 2026-04-21 16:49 | 33.46132 | -86.70707 | 37382 ft | 523 kts | 146° |
| 2026-04-21 16:50 | 33.40389 | -86.65403 | 37385 ft | 524 kts | 146° |
| 2026-04-21 16:50 | 33.34615 | -86.60077 | 37363 ft | 524 kts | 146° |
| 2026-04-21 16:51 | 33.28829 | -86.54761 | 37370 ft | 524 kts | 146° |
| 2026-04-21 16:51 | 33.23032 | -86.49443 | 37358 ft | 526 kts | 146° |
| 2026-04-21 16:52 | 33.17224 | -86.44125 | 37364 ft | 526 kts | 146° |
| 2026-04-21 16:52 | 33.11406 | -86.38804 | 37362 ft | 527 kts | 146° |
| 2026-04-21 16:53 | 33.05580 | -86.33487 | 37354 ft | 527 kts | 146° |
| 2026-04-21 16:53 | 32.99748 | -86.28173 | 37359 ft | 527 kts | 146° |
| 2026-04-21 16:54 | 32.93956 | -86.22902 | 37366 ft | 527 kts | 146° |
| 2026-04-21 16:54 | 32.88122 | -86.17607 | 37416 ft | 526 kts | 143° |
| 2026-04-21 16:54 | 32.85206 | -86.14968 | 37233 ft | 528 kts | 143° |
| 2026-04-21 16:55 | 32.82281 | -86.12315 | 37131 ft | 527 kts | 143° |
| 2026-04-21 16:55 | 32.76462 | -86.07042 | 37017 ft | 524 kts | 143° |
| 2026-04-21 16:56 | 32.70684 | -86.01821 | 37000 ft | 519 kts | 143° |
| 2026-04-21 16:56 | 32.64980 | -85.96677 | 36995 ft | 516 kts | 143° |
| 2026-04-21 16:57 | 32.59272 | -85.91538 | 36997 ft | 513 kts | 143° |
| 2026-04-21 16:57 | 32.53607 | -85.86445 | 36997 ft | 510 kts | 143° |
| 2026-04-21 16:58 | 32.47959 | -85.81376 | 36997 ft | 508 kts | 143° |
| 2026-04-21 16:58 | 32.42340 | -85.76340 | 36998 ft | 505 kts | 143° |
| 2026-04-21 16:59 | 32.36780 | -85.71365 | 37000 ft | 503 kts | 143° |
| 2026-04-21 16:59 | 32.31193 | -85.66374 | 36999 ft | 502 kts | 143° |
| 2026-04-21 17:00 | 32.25633 | -85.61416 | 37000 ft | 500 kts | 143° |
| 2026-04-21 17:00 | 32.20985 | -85.57276 | 36999 ft | 499 kts | 143° |
| 2026-04-21 17:01 | 32.14551 | -85.51555 | 37001 ft | 497 kts | 143° |
| 2026-04-21 17:01 | 32.09022 | -85.46647 | 36999 ft | 496 kts | 143° |
| 2026-04-21 17:02 | 32.03512 | -85.41762 | 37001 ft | 495 kts | 143° |
| 2026-04-21 17:02 | 31.98041 | -85.36921 | 37000 ft | 494 kts | 143° |
| 2026-04-21 17:03 | 31.92550 | -85.32068 | 37001 ft | 493 kts | 143° |
| 2026-04-21 17:03 | 31.87069 | -85.27232 | 37001 ft | 492 kts | 143° |
| 2026-04-21 17:04 | 31.81590 | -85.22405 | 37000 ft | 491 kts | 143° |
| 2026-04-21 17:04 | 31.76114 | -85.17588 | 37001 ft | 491 kts | 143° |
| 2026-04-21 17:05 | 31.70684 | -85.12818 | 37000 ft | 490 kts | 143° |
| 2026-04-21 17:05 | 31.65215 | -85.08020 | 37001 ft | 490 kts | 143° |
| 2026-04-21 17:06 | 31.59760 | -85.03238 | 37000 ft | 487 kts | 142° |
| 2026-04-21 17:06 | 31.57320 | -85.00527 | 36991 ft | 484 kts | 127° |
| 2026-04-21 17:06 | 31.55670 | -84.97112 | 36997 ft | 482 kts | 109° |
| 2026-04-21 17:07 | 31.54073 | -84.90914 | 37005 ft | 477 kts | 108° |
| 2026-04-21 17:07 | 31.51474 | -84.82396 | 37003 ft | 478 kts | 110° |
| 2026-04-21 17:08 | 31.49184 | -84.75140 | 37001 ft | 478 kts | 110° |
| 2026-04-21 17:08 | 31.46910 | -84.67820 | 37002 ft | 479 kts | 110° |
| 2026-04-21 17:09 | 31.43517 | -84.56814 | 37002 ft | 480 kts | 110° |
| 2026-04-21 17:09 | 31.41255 | -84.49496 | 37001 ft | 481 kts | 110° |
| 2026-04-21 17:10 | 31.38970 | -84.42129 | 37002 ft | 482 kts | 110° |
| 2026-04-21 17:10 | 31.37875 | -84.38604 | 37003 ft | 482 kts | 110° |
| 2026-04-21 17:11 | 31.36718 | -84.34882 | 37002 ft | 482 kts | 110° |
| 2026-04-21 17:11 | 31.36009 | -84.32607 | 37002 ft | 482 kts | 110° |
| 2026-04-21 17:12 | 31.33709 | -84.25228 | 37001 ft | 483 kts | 110° |
| 2026-04-21 17:12 | 31.31406 | -84.17857 | 37003 ft | 483 kts | 110° |
| 2026-04-21 17:13 | 31.29168 | -84.10707 | 37001 ft | 484 kts | 110° |
| 2026-04-21 17:14 | 31.27309 | -84.04788 | 37002 ft | 484 kts | 110° |
| 2026-04-21 17:14 | 31.24982 | -83.97398 | 37002 ft | 484 kts | 110° |
| 2026-04-21 17:15 | 31.22650 | -83.90007 | 37001 ft | 485 kts | 110° |
| 2026-04-21 17:15 | 31.20320 | -83.82634 | 37001 ft | 485 kts | 110° |
| 2026-04-21 17:16 | 31.17976 | -83.75234 | 37002 ft | 485 kts | 110° |
| 2026-04-21 17:16 | 31.15628 | -83.67837 | 37002 ft | 486 kts | 110° |
| 2026-04-21 17:17 | 31.13285 | -83.60475 | 37001 ft | 486 kts | 110° |
| 2026-04-21 17:17 | 31.10929 | -83.53088 | 37001 ft | 486 kts | 110° |
| 2026-04-21 17:18 | 31.08563 | -83.45687 | 37002 ft | 486 kts | 111° |
| 2026-04-21 17:18 | 31.06338 | -83.38742 | 37002 ft | 486 kts | 111° |
| 2026-04-21 17:19 | 31.06075 | -83.37920 | 37002 ft | 486 kts | 111° |
| 2026-04-21 17:19 | 31.03702 | -83.30532 | 37001 ft | 487 kts | 111° |
| 2026-04-21 17:20 | 31.01333 | -83.23173 | 37007 ft | 486 kts | 111° |
| 2026-04-21 17:20 | 30.99373 | -83.17096 | 37010 ft | 484 kts | 110° |
| 2026-04-21 17:21 | 30.97005 | -83.09768 | 37001 ft | 484 kts | 111° |
| 2026-04-21 17:21 | 30.94626 | -83.02425 | 37003 ft | 484 kts | 111° |
| 2026-04-21 17:22 | 30.92245 | -82.95086 | 37001 ft | 485 kts | 111° |
| 2026-04-21 17:22 | 30.89832 | -82.87810 | 36988 ft | 480 kts | 116° |
| 2026-04-21 17:23 | 30.88016 | -82.84564 | 36995 ft | 478 kts | 135° |
| 2026-04-21 17:23 | 30.85462 | -82.82138 | 37007 ft | 471 kts | 146° |
| 2026-04-21 17:23 | 30.80160 | -82.77643 | 37003 ft | 472 kts | 142° |
| 2026-04-21 17:24 | 30.74980 | -82.72921 | 37002 ft | 473 kts | 142° |
| 2026-04-21 17:24 | 30.69791 | -82.68190 | 37003 ft | 475 kts | 142° |
| 2026-04-21 17:25 | 30.64597 | -82.63501 | 37002 ft | 476 kts | 142° |
| 2026-04-21 17:25 | 30.59347 | -82.58783 | 37003 ft | 477 kts | 142° |
| 2026-04-21 17:26 | 30.54121 | -82.54093 | 37002 ft | 478 kts | 142° |
| 2026-04-21 17:26 | 30.48852 | -82.49370 | 37002 ft | 479 kts | 142° |
| 2026-04-21 17:27 | 30.43597 | -82.44666 | 37002 ft | 479 kts | 142° |
| 2026-04-21 17:27 | 30.38312 | -82.39940 | 37002 ft | 480 kts | 142° |
| 2026-04-21 17:28 | 30.32996 | -82.35195 | 37145 ft | 485 kts | 146° |
| 2026-04-21 17:28 | 30.30308 | -82.32800 | 37252 ft | 491 kts | 146° |
| 2026-04-21 17:28 | 30.27582 | -82.30371 | 37264 ft | 499 kts | 146° |
| 2026-04-21 17:29 | 30.24764 | -82.27866 | 36579 ft | 523 kts | 146° |
| 2026-04-21 17:29 | 30.21840 | -82.25295 | 35774 ft | 526 kts | 148° |
| 2026-04-21 17:29 | 30.18697 | -82.23303 | 34944 ft | 507 kts | 166° |
| 2026-04-21 17:29 | 30.15310 | -82.22543 | 34428 ft | 488 kts | 180° |
| 2026-04-21 17:30 | 30.11949 | -82.22187 | 33848 ft | 485 kts | 177° |
| 2026-04-21 17:30 | 30.08662 | -82.21597 | 33339 ft | 483 kts | 174° |
| 2026-04-21 17:30 | 30.05373 | -82.20883 | 32852 ft | 479 kts | 173° |
| 2026-04-21 17:30 | 30.02102 | -82.20162 | 32372 ft | 475 kts | 173° |
| 2026-04-21 17:31 | 29.98863 | -82.19481 | 31902 ft | 470 kts | 174° |
| 2026-04-21 17:31 | 29.95649 | -82.18839 | 31440 ft | 466 kts | 174° |
| 2026-04-21 17:31 | 29.92468 | -82.18216 | 30983 ft | 462 kts | 174° |
| 2026-04-21 17:31 | 29.89310 | -82.17595 | 30534 ft | 459 kts | 174° |
| 2026-04-21 17:32 | 29.86172 | -82.16971 | 30006 ft | 455 kts | 174° |
| 2026-04-21 17:32 | 29.83105 | -82.16358 | 29528 ft | 451 kts | 174° |
| 2026-04-21 17:32 | 29.80027 | -82.15742 | 29082 ft | 446 kts | 174° |
| 2026-04-21 17:32 | 29.76977 | -82.15133 | 28604 ft | 442 kts | 174° |
| 2026-04-21 17:33 | 29.73949 | -82.14529 | 28151 ft | 439 kts | 174° |
| 2026-04-21 17:33 | 29.70947 | -82.13932 | 27706 ft | 435 kts | 174° |
| 2026-04-21 17:33 | 29.67971 | -82.13341 | 27256 ft | 432 kts | 174° |
| 2026-04-21 17:33 | 29.65062 | -82.12763 | 26827 ft | 429 kts | 174° |
| 2026-04-21 17:34 | 29.62124 | -82.12179 | 26391 ft | 426 kts | 174° |
| 2026-04-21 17:34 | 29.59209 | -82.11601 | 25946 ft | 423 kts | 174° |
| 2026-04-21 17:34 | 29.56317 | -82.11027 | 25528 ft | 421 kts | 174° |
| 2026-04-21 17:34 | 29.53436 | -82.10457 | 25092 ft | 419 kts | 174° |
| 2026-04-21 17:35 | 29.50575 | -82.09890 | 24672 ft | 417 kts | 174° |
| 2026-04-21 17:35 | 29.47717 | -82.09324 | 24238 ft | 415 kts | 174° |
| 2026-04-21 17:35 | 29.44873 | -82.08761 | 23774 ft | 414 kts | 174° |
| 2026-04-21 17:35 | 29.42034 | -82.08201 | 23297 ft | 412 kts | 174° |
| 2026-04-21 17:36 | 29.39221 | -82.07645 | 22845 ft | 409 kts | 173° |
| 2026-04-21 17:36 | 29.36465 | -82.07101 | 22429 ft | 406 kts | 173° |
| 2026-04-21 17:36 | 29.33658 | -82.06547 | 21986 ft | 402 kts | 173° |
| 2026-04-21 17:36 | 29.30960 | -82.05980 | 21564 ft | 395 kts | 169° |
| 2026-04-21 17:37 | 29.28438 | -82.04831 | 21157 ft | 389 kts | 152° |
| 2026-04-21 17:37 | 29.26137 | -82.03223 | 20791 ft | 386 kts | 150° |
| 2026-04-21 17:37 | 29.23815 | -82.01655 | 20392 ft | 390 kts | 152° |
| 2026-04-21 17:37 | 29.21424 | -82.00115 | 19999 ft | 397 kts | 153° |
| 2026-04-21 17:38 | 29.18997 | -81.98582 | 19578 ft | 399 kts | 153° |
| 2026-04-21 17:38 | 29.16564 | -81.97054 | 19144 ft | 398 kts | 153° |
| 2026-04-21 17:38 | 29.14140 | -81.95534 | 18729 ft | 395 kts | 153° |
| 2026-04-21 17:38 | 29.11727 | -81.94020 | 18254 ft | 393 kts | 152° |
| 2026-04-21 17:39 | 29.09340 | -81.92522 | 17805 ft | 390 kts | 152° |
| 2026-04-21 17:39 | 29.06985 | -81.91025 | 17372 ft | 383 kts | 149° |
| 2026-04-21 17:39 | 29.04900 | -81.89191 | 16965 ft | 377 kts | 136° |
| 2026-04-21 17:39 | 29.03060 | -81.87072 | 16582 ft | 373 kts | 134° |
| 2026-04-21 17:40 | 29.01242 | -81.84972 | 16178 ft | 370 kts | 135° |
| 2026-04-21 17:40 | 28.99395 | -81.82938 | 15781 ft | 367 kts | 136° |
| 2026-04-21 17:40 | 28.97565 | -81.80915 | 15383 ft | 363 kts | 132° |
| 2026-04-21 17:40 | 28.95985 | -81.78738 | 14995 ft | 359 kts | 126° |
| 2026-04-21 17:41 | 28.94522 | -81.76443 | 14632 ft | 356 kts | 124° |
| 2026-04-21 17:41 | 28.93079 | -81.74163 | 14248 ft | 354 kts | 124° |
| 2026-04-21 17:41 | 28.91612 | -81.71916 | 13828 ft | 351 kts | 126° |
| 2026-04-21 17:41 | 28.90138 | -81.69712 | 13425 ft | 348 kts | 126° |
| 2026-04-21 17:42 | 28.88668 | -81.67531 | 13041 ft | 345 kts | 126° |
| 2026-04-21 17:42 | 28.87208 | -81.65372 | 12647 ft | 342 kts | 126° |
| 2026-04-21 17:42 | 28.85758 | -81.63227 | 12285 ft | 341 kts | 126° |
| 2026-04-21 17:42 | 28.84301 | -81.61076 | 11929 ft | 344 kts | 125° |
| 2026-04-21 17:43 | 28.82849 | -81.58928 | 11799 ft | 339 kts | 126° |
| 2026-04-21 17:43 | 28.81423 | -81.56824 | 11613 ft | 330 kts | 126° |
| 2026-04-21 17:43 | 28.80033 | -81.54805 | 11473 ft | 315 kts | 130° |
| 2026-04-21 17:43 | 28.78368 | -81.53276 | 11169 ft | 303 kts | 153° |
| 2026-04-21 17:44 | 28.76484 | -81.52304 | 10900 ft | 295 kts | 154° |
| 2026-04-21 17:44 | 28.74641 | -81.51258 | 10612 ft | 297 kts | 151° |
| 2026-04-21 17:44 | 28.72795 | -81.50147 | 10314 ft | 304 kts | 150° |
| 2026-04-21 17:44 | 28.70925 | -81.49013 | 10115 ft | 303 kts | 150° |
| 2026-04-21 17:45 | 28.69108 | -81.47920 | 9892 ft | 297 kts | 150° |
| 2026-04-21 17:45 | 28.67293 | -81.46827 | 9568 ft | 292 kts | 151° |
| 2026-04-21 17:45 | 28.65505 | -81.45756 | 9265 ft | 288 kts | 150° |
| 2026-04-21 17:45 | 28.63747 | -81.44704 | 8982 ft | 283 kts | 149° |
| 2026-04-21 17:46 | 28.62020 | -81.43673 | 8761 ft | 275 kts | 149° |
| 2026-04-21 17:46 | 28.60342 | -81.42748 | 8627 ft | 261 kts | 159° |
| 2026-04-21 17:46 | 28.58597 | -81.42475 | 8512 ft | 246 kts | 176° |
| 2026-04-21 17:46 | 28.56887 | -81.42400 | 8407 ft | 252 kts | 174° |
| 2026-04-21 17:47 | 28.55099 | -81.42346 | 8116 ft | 258 kts | 178° |
| 2026-04-21 17:47 | 28.53320 | -81.42364 | 7824 ft | 254 kts | 177° |
| 2026-04-21 17:47 | 28.51585 | -81.42384 | 7552 ft | 250 kts | 176° |
| 2026-04-21 17:47 | 28.49858 | -81.42395 | 7275 ft | 246 kts | 176° |
| 2026-04-21 17:48 | 28.48707 | -81.42402 | 7077 ft | 244 kts | 176° |
| 2026-04-21 17:48 | 28.46485 | -81.42410 | 6730 ft | 240 kts | 176° |
| 2026-04-21 17:48 | 28.44798 | -81.42414 | 6450 ft | 245 kts | 175° |
| 2026-04-21 17:48 | 28.43078 | -81.42414 | 6184 ft | 249 kts | 175° |
| 2026-04-21 17:49 | 28.41341 | -81.42417 | 5878 ft | 247 kts | 175° |
| 2026-04-21 17:49 | 28.39637 | -81.42415 | 5583 ft | 243 kts | 175° |
| 2026-04-21 17:49 | 28.37948 | -81.42417 | 5299 ft | 241 kts | 174° |
| 2026-04-21 17:49 | 28.36275 | -81.42421 | 5094 ft | 238 kts | 174° |
| 2026-04-21 17:50 | 28.34644 | -81.42419 | 4954 ft | 231 kts | 173° |
| 2026-04-21 17:50 | 28.33074 | -81.42295 | 4865 ft | 228 kts | 167° |
| 2026-04-21 17:50 | 28.31486 | -81.42084 | 4618 ft | 233 kts | 167° |
| 2026-04-21 17:50 | 28.29864 | -81.41864 | 4242 ft | 234 kts | 168° |
| 2026-04-21 17:51 | 28.28239 | -81.41667 | 3884 ft | 235 kts | 168° |
| 2026-04-21 17:51 | 28.26618 | -81.41449 | 3527 ft | 231 kts | 162° |
| 2026-04-21 17:51 | 28.25287 | -81.40642 | 3139 ft | 208 kts | 121° |
| 2026-04-21 17:51 | 28.24896 | -81.39174 | 3016 ft | 198 kts | 84° |
| 2026-04-21 17:52 | 28.25114 | -81.37608 | 2987 ft | 202 kts | 84° |
| 2026-04-21 17:52 | 28.25297 | -81.36047 | 2997 ft | 198 kts | 75° |
| 2026-04-21 17:52 | 28.25689 | -81.34602 | 2975 ft | 188 kts | 71° |
| 2026-04-21 17:52 | 28.26232 | -81.33296 | 2976 ft | 182 kts | 49° |
| 2026-04-21 17:53 | 28.27333 | -81.32577 | 2839 ft | 191 kts | 18° |
| 2026-04-21 17:53 | 28.28629 | -81.32372 | 2623 ft | 186 kts | 12° |
| 2026-04-21 17:53 | 28.29925 | -81.32217 | 2362 ft | 185 kts | 12° |
| 2026-04-21 17:53 | 28.31181 | -81.32102 | 2120 ft | 179 kts | 8° |
| 2026-04-21 17:54 | 28.32408 | -81.32098 | 1883 ft | 172 kts | 6° |
| 2026-04-21 17:54 | 28.33554 | -81.32116 | 1643 ft | 156 kts | 7° |
| 2026-04-21 17:54 | 28.34588 | -81.32123 | 1475 ft | 147 kts | 8° |
| 2026-04-21 17:54 | 28.35611 | -81.32128 | 1301 ft | 146 kts | 8° |
| 2026-04-21 17:55 | 28.36602 | -81.32142 | 1106 ft | 142 kts | 7° |
| 2026-04-21 17:55 | 28.37582 | -81.32156 | 906 ft | 141 kts | 7° |
| 2026-04-21 17:55 | 28.38579 | -81.32166 | 694 ft | 145 kts | 6° |
| 2026-04-21 17:55 | 28.39579 | -81.32184 | 530 ft | 143 kts | 4° |
| 2026-04-21 17:56 | 28.40561 | -81.32201 | 320 ft | 139 kts | 5° |
| 2026-04-21 17:56 | 28.41521 | -81.32195 | 176 ft | 141 kts | 0° |
| 2026-04-21 17:56 | 28.42487 | -81.32200 | 113 ft | 130 kts | 359° |
| 2026-04-21 17:56 | 28.43179 | -81.32214 | 106 ft | 66 kts | 359° |
| 2026-04-21 17:57 | 28.43518 | -81.32217 | 108 ft | 45 kts | 359° |
| 2026-04-21 17:57 | 28.43808 | -81.32219 | 112 ft | 39 kts | 359° |
| 2026-04-21 17:57 | 28.44067 | -81.32223 | 111 ft | 36 kts | 359° |
| 2026-04-21 17:57 | 28.44314 | -81.32225 | 111 ft | 36 kts | 359° |
| 2026-04-21 17:58 | 28.44567 | -81.32228 | 109 ft | 36 kts | 359° |
| 2026-04-21 17:58 | 28.44787 | -81.32242 | 108 ft | 25 kts | 333° |
| 2026-04-21 17:58 | 28.44822 | -81.32382 | 110 ft | 16 kts | 270° |
| 2026-04-21 17:58 | 28.44822 | -81.32507 | 108 ft | 16 kts | 269° |
| 2026-04-21 17:59 | 28.44819 | -81.32633 | 109 ft | 16 kts | 268° |
| 2026-04-21 17:59 | 28.44816 | -81.32759 | 115 ft | 16 kts | 268° |
| 2026-04-21 17:59 | 28.44771 | -81.32862 | 112 ft | 16 kts | 199° |
| 2026-04-21 17:59 | 28.44653 | -81.32867 | 112 ft | 18 kts | 179° |
| 2026-04-21 18:00 | 28.44528 | -81.32865 | 112 ft | 18 kts | 179° |
| 2026-04-21 18:00 | 28.44405 | -81.32864 | 111 ft | 18 kts | 179° |
| 2026-04-21 18:00 | 28.44268 | -81.32862 | 107 ft | 21 kts | 179° |
| 2026-04-21 18:00 | 28.44116 | -81.32862 | 107 ft | 22 kts | 182° |
| 2026-04-21 18:01 | 28.43974 | -81.32921 | 107 ft | 22 kts | 202° |
| 2026-04-21 18:01 | 28.43823 | -81.32931 | 106 ft | 22 kts | 179° |
| 2026-04-21 18:01 | 28.43670 | -81.32929 | 108 ft | 22 kts | 179° |
| 2026-04-21 18:01 | 28.43518 | -81.32928 | 111 ft | 22 kts | 179° |
| 2026-04-21 18:02 | 28.43417 | -81.32926 | 110 ft | 22 kts | 179° |
| 2026-04-21 18:02 | 28.43213 | -81.32925 | 112 ft | 22 kts | 179° |
| 2026-04-21 18:02 | 28.43062 | -81.32923 | 113 ft | 22 kts | 179° |
| 2026-04-21 18:02 | 28.42903 | -81.32922 | 110 ft | 24 kts | 179° |
| 2026-04-21 18:03 | 28.42736 | -81.32920 | 109 ft | 24 kts | 179° |
| 2026-04-21 18:03 | 28.42569 | -81.32918 | 107 ft | 24 kts | 179° |
| 2026-04-21 18:03 | 28.42402 | -81.32916 | 106 ft | 24 kts | 180° |
| 2026-04-21 18:03 | 28.42251 | -81.32917 | 107 ft | 20 kts | 180° |
| 2026-04-21 18:04 | 28.42111 | -81.32916 | 107 ft | 20 kts | 178° |
| 2026-04-21 18:04 | 28.41971 | -81.32912 | 109 ft | 20 kts | 179° |
| 2026-04-21 18:04 | 28.41831 | -81.32910 | 112 ft | 20 kts | 179° |
| 2026-04-21 18:04 | 28.41707 | -81.32909 | 110 ft | 17 kts | 179° |
| 2026-04-21 18:05 | 28.41586 | -81.32907 | 111 ft | 18 kts | 181° |
| 2026-04-21 18:05 | 28.41481 | -81.32973 | 110 ft | 18 kts | 224° |
| 2026-04-21 18:05 | 28.41409 | -81.33088 | 110 ft | 19 kts | 260° |
| 2026-04-21 18:05 | 28.41404 | -81.33246 | 109 ft | 20 kts | 269° |
| 2026-04-21 18:06 | 28.41403 | -81.33379 | 108 ft | 11 kts | 270° |
| 2026-04-21 18:06 | 28.41434 | -81.33429 | 107 ft | 9 kts | 355° |
| 2026-04-21 18:06 | 28.41475 | -81.33429 | 106 ft | 0 kts | 0° |
| 2026-04-21 18:07 | 28.41476 | -81.33429 | 106 ft | 1 kts | 0° |
| 2026-04-21 18:07 | 28.41481 | -81.33429 | 107 ft | 0 kts | 0° |